sensor_id;sensor_type;location;lat;lon;timestamp;P1;durP1;ratioP1;P2;durP2;ratioP2
19095;SDS011;9680;52.520;13.332;2024-02-26T00:01:45;11.77;;;4.83;;
19095;SDS011;9680;52.520;13.332;2024-02-26T00:04:11;14.33;;;5.17;;
19095;SDS011;9680;52.520;13.332;2024-02-26T00:06:39;14.37;;;4.87;;
19095;SDS011;9680;52.520;13.332;2024-02-26T00:09:06;13.03;;;5.53;;
19095;SDS011;9680;52.520;13.332;2024-02-26T00:11:33;13.70;;;5.23;;
19095;SDS011;9680;52.520;13.332;2024-02-26T00:14:00;12.47;;;5.30;;
19095;SDS011;9680;52.520;13.332;2024-02-26T00:16:28;14.70;;;4.97;;
19095;SDS011;9680;52.520;13.332;2024-02-26T00:18:55;10.87;;;4.70;;
19095;SDS011;9680;52.520;13.332;2024-02-26T00:21:21;13.13;;;5.47;;
19095;SDS011;9680;52.520;13.332;2024-02-26T00:23:49;12.93;;;5.23;;
19095;SDS011;9680;52.520;13.332;2024-02-26T00:26:15;14.90;;;5.33;;
19095;SDS011;9680;52.520;13.332;2024-02-26T00:28:42;13.67;;;5.47;;
19095;SDS011;9680;52.520;13.332;2024-02-26T00:31:09;14.43;;;5.20;;
19095;SDS011;9680;52.520;13.332;2024-02-26T00:33:38;16.23;;;5.83;;
19095;SDS011;9680;52.520;13.332;2024-02-26T00:36:05;12.80;;;5.40;;
19095;SDS011;9680;52.520;13.332;2024-02-26T00:38:32;14.20;;;5.17;;
19095;SDS011;9680;52.520;13.332;2024-02-26T00:40:58;12.90;;;5.13;;
19095;SDS011;9680;52.520;13.332;2024-02-26T00:43:25;14.53;;;5.70;;
19095;SDS011;9680;52.520;13.332;2024-02-26T00:45:52;16.53;;;5.63;;
19095;SDS011;9680;52.520;13.332;2024-02-26T00:48:19;13.40;;;5.97;;
19095;SDS011;9680;52.520;13.332;2024-02-26T00:50:47;15.00;;;6.00;;
19095;SDS011;9680;52.520;13.332;2024-02-26T00:53:13;17.13;;;5.97;;
19095;SDS011;9680;52.520;13.332;2024-02-26T00:55:40;12.97;;;6.23;;
19095;SDS011;9680;52.520;13.332;2024-02-26T00:58:07;17.70;;;6.60;;
19095;SDS011;9680;52.520;13.332;2024-02-26T01:00:33;20.60;;;7.10;;
19095;SDS011;9680;52.520;13.332;2024-02-26T01:03:00;15.10;;;6.50;;
19095;SDS011;9680;52.520;13.332;2024-02-26T01:05:28;17.70;;;7.17;;
19095;SDS011;9680;52.520;13.332;2024-02-26T01:07:56;15.93;;;6.47;;
19095;SDS011;9680;52.520;13.332;2024-02-26T01:10:23;17.20;;;7.03;;
19095;SDS011;9680;52.520;13.332;2024-02-26T01:12:50;15.77;;;7.07;;
19095;SDS011;9680;52.520;13.332;2024-02-26T01:15:16;15.87;;;7.10;;
19095;SDS011;9680;52.520;13.332;2024-02-26T01:17:47;18.50;;;8.07;;
19095;SDS011;9680;52.520;13.332;2024-02-26T01:20:14;16.83;;;7.17;;
19095;SDS011;9680;52.520;13.332;2024-02-26T01:22:41;19.87;;;7.80;;
19095;SDS011;9680;52.520;13.332;2024-02-26T01:25:10;20.17;;;8.10;;
19095;SDS011;9680;52.520;13.332;2024-02-26T01:27:37;18.40;;;7.97;;
19095;SDS011;9680;52.520;13.332;2024-02-26T01:30:05;23.73;;;8.03;;
19095;SDS011;9680;52.520;13.332;2024-02-26T01:32:32;17.17;;;7.63;;
19095;SDS011;9680;52.520;13.332;2024-02-26T01:35:01;21.33;;;7.83;;
19095;SDS011;9680;52.520;13.332;2024-02-26T01:37:29;15.50;;;7.53;;
19095;SDS011;9680;52.520;13.332;2024-02-26T01:39:55;21.47;;;8.30;;
19095;SDS011;9680;52.520;13.332;2024-02-26T01:42:24;19.40;;;7.63;;
19095;SDS011;9680;52.520;13.332;2024-02-26T01:44:50;19.07;;;8.03;;
19095;SDS011;9680;52.520;13.332;2024-02-26T01:47:17;19.63;;;8.03;;
19095;SDS011;9680;52.520;13.332;2024-02-26T01:49:44;18.43;;;7.53;;
19095;SDS011;9680;52.520;13.332;2024-02-26T01:52:11;17.13;;;7.53;;
19095;SDS011;9680;52.520;13.332;2024-02-26T01:54:38;16.23;;;7.70;;
19095;SDS011;9680;52.520;13.332;2024-02-26T01:57:06;14.93;;;7.57;;
19095;SDS011;9680;52.520;13.332;2024-02-26T01:59:36;18.50;;;8.33;;
19095;SDS011;9680;52.520;13.332;2024-02-26T02:02:03;15.33;;;7.47;;
19095;SDS011;9680;52.520;13.332;2024-02-26T02:04:34;15.17;;;7.27;;
19095;SDS011;9680;52.520;13.332;2024-02-26T02:07:01;17.67;;;7.77;;
19095;SDS011;9680;52.520;13.332;2024-02-26T02:09:28;21.90;;;7.73;;
19095;SDS011;9680;52.520;13.332;2024-02-26T02:11:55;19.33;;;7.83;;
19095;SDS011;9680;52.520;13.332;2024-02-26T02:14:22;18.73;;;7.63;;
19095;SDS011;9680;52.520;13.332;2024-02-26T02:16:50;14.97;;;7.17;;
19095;SDS011;9680;52.520;13.332;2024-02-26T02:19:17;21.13;;;8.30;;
19095;SDS011;9680;52.520;13.332;2024-02-26T02:21:45;23.00;;;7.70;;
19095;SDS011;9680;52.520;13.332;2024-02-26T02:24:12;17.87;;;7.40;;
19095;SDS011;9680;52.520;13.332;2024-02-26T02:26:38;18.67;;;7.73;;
19095;SDS011;9680;52.520;13.332;2024-02-26T02:29:06;19.23;;;8.30;;
19095;SDS011;9680;52.520;13.332;2024-02-26T02:31:34;17.80;;;8.03;;
19095;SDS011;9680;52.520;13.332;2024-02-26T02:34:01;17.67;;;7.33;;
19095;SDS011;9680;52.520;13.332;2024-02-26T02:36:28;17.03;;;7.73;;
19095;SDS011;9680;52.520;13.332;2024-02-26T02:38:57;19.10;;;7.50;;
19095;SDS011;9680;52.520;13.332;2024-02-26T02:41:23;16.70;;;7.37;;
19095;SDS011;9680;52.520;13.332;2024-02-26T02:43:51;16.33;;;7.27;;
19095;SDS011;9680;52.520;13.332;2024-02-26T02:46:18;17.67;;;7.70;;
19095;SDS011;9680;52.520;13.332;2024-02-26T02:48:45;15.67;;;6.77;;
19095;SDS011;9680;52.520;13.332;2024-02-26T02:51:12;17.50;;;7.23;;
19095;SDS011;9680;52.520;13.332;2024-02-26T02:53:38;15.53;;;7.60;;
19095;SDS011;9680;52.520;13.332;2024-02-26T02:56:07;13.77;;;6.63;;
19095;SDS011;9680;52.520;13.332;2024-02-26T02:58:33;14.30;;;5.83;;
19095;SDS011;9680;52.520;13.332;2024-02-26T03:01:00;13.10;;;5.57;;
19095;SDS011;9680;52.520;13.332;2024-02-26T03:03:27;13.67;;;5.70;;
19095;SDS011;9680;52.520;13.332;2024-02-26T03:05:54;11.57;;;5.57;;
19095;SDS011;9680;52.520;13.332;2024-02-26T03:08:21;10.33;;;5.23;;
19095;SDS011;9680;52.520;13.332;2024-02-26T03:10:49;11.43;;;5.60;;
19095;SDS011;9680;52.520;13.332;2024-02-26T03:13:17;10.27;;;5.10;;
19095;SDS011;9680;52.520;13.332;2024-02-26T03:15:44;10.93;;;5.07;;
19095;SDS011;9680;52.520;13.332;2024-02-26T03:18:10;13.63;;;5.30;;
19095;SDS011;9680;52.520;13.332;2024-02-26T03:20:37;10.37;;;5.07;;
19095;SDS011;9680;52.520;13.332;2024-02-26T03:23:04;11.90;;;5.43;;
19095;SDS011;9680;52.520;13.332;2024-02-26T03:25:31;11.60;;;4.87;;
19095;SDS011;9680;52.520;13.332;2024-02-26T03:27:58;9.23;;;5.07;;
19095;SDS011;9680;52.520;13.332;2024-02-26T03:30:26;11.27;;;5.20;;
19095;SDS011;9680;52.520;13.332;2024-02-26T03:32:53;12.57;;;5.00;;
19095;SDS011;9680;52.520;13.332;2024-02-26T03:35:19;9.47;;;4.60;;
19095;SDS011;9680;52.520;13.332;2024-02-26T03:37:46;9.97;;;4.80;;
19095;SDS011;9680;52.520;13.332;2024-02-26T03:40:15;11.60;;;4.87;;
19095;SDS011;9680;52.520;13.332;2024-02-26T03:42:44;10.70;;;4.40;;
19095;SDS011;9680;52.520;13.332;2024-02-26T03:45:11;9.13;;;4.87;;
19095;SDS011;9680;52.520;13.332;2024-02-26T03:47:39;9.97;;;4.90;;
19095;SDS011;9680;52.520;13.332;2024-02-26T03:50:06;10.90;;;4.87;;
19095;SDS011;9680;52.520;13.332;2024-02-26T03:52:33;17.30;;;4.80;;
19095;SDS011;9680;52.520;13.332;2024-02-26T03:55:00;10.30;;;5.00;;
19095;SDS011;9680;52.520;13.332;2024-02-26T03:57:27;13.03;;;4.93;;
19095;SDS011;9680;52.520;13.332;2024-02-26T03:59:54;10.47;;;4.87;;
19095;SDS011;9680;52.520;13.332;2024-02-26T04:02:21;9.33;;;4.60;;
19095;SDS011;9680;52.520;13.332;2024-02-26T04:04:49;12.23;;;4.90;;
19095;SDS011;9680;52.520;13.332;2024-02-26T04:07:16;14.53;;;5.47;;
19095;SDS011;9680;52.520;13.332;2024-02-26T04:09:44;10.23;;;5.07;;
19095;SDS011;9680;52.520;13.332;2024-02-26T04:12:11;13.27;;;5.60;;
19095;SDS011;9680;52.520;13.332;2024-02-26T04:14:37;11.40;;;5.10;;
19095;SDS011;9680;52.520;13.332;2024-02-26T04:17:04;11.23;;;5.20;;
19095;SDS011;9680;52.520;13.332;2024-02-26T04:19:31;12.43;;;5.00;;
19095;SDS011;9680;52.520;13.332;2024-02-26T04:21:59;10.17;;;4.90;;
19095;SDS011;9680;52.520;13.332;2024-02-26T04:24:26;11.27;;;5.27;;
19095;SDS011;9680;52.520;13.332;2024-02-26T04:26:53;11.50;;;5.47;;
19095;SDS011;9680;52.520;13.332;2024-02-26T04:29:19;12.20;;;5.20;;
19095;SDS011;9680;52.520;13.332;2024-02-26T04:31:46;9.93;;;4.93;;
19095;SDS011;9680;52.520;13.332;2024-02-26T04:34:13;10.80;;;5.10;;
19095;SDS011;9680;52.520;13.332;2024-02-26T04:36:40;13.13;;;5.97;;
19095;SDS011;9680;52.520;13.332;2024-02-26T04:39:08;10.43;;;5.20;;
19095;SDS011;9680;52.520;13.332;2024-02-26T04:41:36;12.43;;;5.73;;
19095;SDS011;9680;52.520;13.332;2024-02-26T04:44:03;11.90;;;5.33;;
19095;SDS011;9680;52.520;13.332;2024-02-26T04:46:30;13.37;;;5.60;;
19095;SDS011;9680;52.520;13.332;2024-02-26T04:48:56;15.83;;;5.60;;
19095;SDS011;9680;52.520;13.332;2024-02-26T04:51:23;11.73;;;5.30;;
19095;SDS011;9680;52.520;13.332;2024-02-26T04:53:50;10.93;;;5.60;;
19095;SDS011;9680;52.520;13.332;2024-02-26T04:56:20;10.87;;;5.23;;
19095;SDS011;9680;52.520;13.332;2024-02-26T04:58:47;10.77;;;5.47;;
19095;SDS011;9680;52.520;13.332;2024-02-26T05:01:14;10.60;;;5.23;;
19095;SDS011;9680;52.520;13.332;2024-02-26T05:03:42;12.37;;;6.03;;
19095;SDS011;9680;52.520;13.332;2024-02-26T05:06:09;12.97;;;5.80;;
19095;SDS011;9680;52.520;13.332;2024-02-26T05:08:36;13.57;;;5.83;;
19095;SDS011;9680;52.520;13.332;2024-02-26T05:11:04;12.50;;;5.33;;
19095;SDS011;9680;52.520;13.332;2024-02-26T05:13:32;13.73;;;5.87;;
19095;SDS011;9680;52.520;13.332;2024-02-26T05:15:59;10.73;;;5.37;;
19095;SDS011;9680;52.520;13.332;2024-02-26T05:18:27;13.17;;;6.03;;
19095;SDS011;9680;52.520;13.332;2024-02-26T05:20:53;12.27;;;5.50;;
19095;SDS011;9680;52.520;13.332;2024-02-26T05:23:20;12.33;;;5.93;;
19095;SDS011;9680;52.520;13.332;2024-02-26T05:25:48;14.60;;;6.33;;
19095;SDS011;9680;52.520;13.332;2024-02-26T05:28:15;13.17;;;6.20;;
19095;SDS011;9680;52.520;13.332;2024-02-26T05:30:43;13.57;;;6.40;;
19095;SDS011;9680;52.520;13.332;2024-02-26T05:33:09;14.43;;;6.43;;
19095;SDS011;9680;52.520;13.332;2024-02-26T05:35:36;15.73;;;7.10;;
19095;SDS011;9680;52.520;13.332;2024-02-26T05:38:03;14.80;;;6.40;;
19095;SDS011;9680;52.520;13.332;2024-02-26T05:40:30;14.03;;;6.50;;
19095;SDS011;9680;52.520;13.332;2024-02-26T05:42:57;16.37;;;7.03;;
19095;SDS011;9680;52.520;13.332;2024-02-26T05:45:23;17.90;;;6.63;;
19095;SDS011;9680;52.520;13.332;2024-02-26T05:47:51;14.80;;;6.83;;
19095;SDS011;9680;52.520;13.332;2024-02-26T05:50:18;27.53;;;11.20;;
19095;SDS011;9680;52.520;13.332;2024-02-26T05:52:45;21.37;;;8.53;;
19095;SDS011;9680;52.520;13.332;2024-02-26T05:55:11;19.50;;;7.97;;
19095;SDS011;9680;52.520;13.332;2024-02-26T05:57:39;16.70;;;7.13;;
19095;SDS011;9680;52.520;13.332;2024-02-26T06:00:06;23.10;;;8.10;;
19095;SDS011;9680;52.520;13.332;2024-02-26T06:02:39;18.37;;;7.50;;
19095;SDS011;9680;52.520;13.332;2024-02-26T06:05:07;15.70;;;7.37;;
19095;SDS011;9680;52.520;13.332;2024-02-26T06:07:34;18.57;;;7.80;;
19095;SDS011;9680;52.520;13.332;2024-02-26T06:10:01;19.83;;;7.93;;
19095;SDS011;9680;52.520;13.332;2024-02-26T06:12:29;17.13;;;7.37;;
19095;SDS011;9680;52.520;13.332;2024-02-26T06:14:57;17.37;;;7.77;;
19095;SDS011;9680;52.520;13.332;2024-02-26T06:17:26;17.60;;;7.77;;
19095;SDS011;9680;52.520;13.332;2024-02-26T06:19:53;16.67;;;7.90;;
19095;SDS011;9680;52.520;13.332;2024-02-26T06:22:21;20.33;;;7.20;;
19095;SDS011;9680;52.520;13.332;2024-02-26T06:24:47;16.80;;;7.87;;
19095;SDS011;9680;52.520;13.332;2024-02-26T06:27:14;17.17;;;7.43;;
19095;SDS011;9680;52.520;13.332;2024-02-26T06:29:41;19.77;;;8.57;;
19095;SDS011;9680;52.520;13.332;2024-02-26T06:32:09;15.97;;;7.70;;
19095;SDS011;9680;52.520;13.332;2024-02-26T06:34:36;16.77;;;7.30;;
19095;SDS011;9680;52.520;13.332;2024-02-26T06:37:03;19.10;;;7.97;;
19095;SDS011;9680;52.520;13.332;2024-02-26T06:39:31;17.07;;;8.10;;
19095;SDS011;9680;52.520;13.332;2024-02-26T06:41:58;35.70;;;13.07;;
19095;SDS011;9680;52.520;13.332;2024-02-26T06:44:26;18.80;;;8.67;;
19095;SDS011;9680;52.520;13.332;2024-02-26T06:46:57;19.57;;;8.67;;
19095;SDS011;9680;52.520;13.332;2024-02-26T06:49:23;19.33;;;8.73;;
19095;SDS011;9680;52.520;13.332;2024-02-26T06:51:50;19.73;;;8.80;;
19095;SDS011;9680;52.520;13.332;2024-02-26T06:54:17;22.60;;;8.73;;
19095;SDS011;9680;52.520;13.332;2024-02-26T06:56:45;20.23;;;8.53;;
19095;SDS011;9680;52.520;13.332;2024-02-26T06:59:12;19.73;;;8.73;;
19095;SDS011;9680;52.520;13.332;2024-02-26T07:01:44;22.27;;;9.33;;
19095;SDS011;9680;52.520;13.332;2024-02-26T07:04:48;24.83;;;9.10;;
19095;SDS011;9680;52.520;13.332;2024-02-26T07:07:15;18.47;;;9.17;;
19095;SDS011;9680;52.520;13.332;2024-02-26T07:09:43;21.47;;;9.50;;
19095;SDS011;9680;52.520;13.332;2024-02-26T07:12:24;19.93;;;9.30;;
19095;SDS011;9680;52.520;13.332;2024-02-26T07:14:51;22.83;;;9.70;;
19095;SDS011;9680;52.520;13.332;2024-02-26T07:17:22;21.77;;;9.63;;
19095;SDS011;9680;52.520;13.332;2024-02-26T07:19:49;22.03;;;9.40;;
19095;SDS011;9680;52.520;13.332;2024-02-26T07:22:16;23.97;;;10.17;;
19095;SDS011;9680;52.520;13.332;2024-02-26T07:24:44;24.80;;;10.17;;
19095;SDS011;9680;52.520;13.332;2024-02-26T07:27:10;23.70;;;9.73;;
19095;SDS011;9680;52.520;13.332;2024-02-26T07:29:39;20.63;;;9.70;;
19095;SDS011;9680;52.520;13.332;2024-02-26T07:32:06;21.87;;;9.57;;
19095;SDS011;9680;52.520;13.332;2024-02-26T07:34:32;23.83;;;10.73;;
19095;SDS011;9680;52.520;13.332;2024-02-26T07:37:03;23.07;;;10.40;;
19095;SDS011;9680;52.520;13.332;2024-02-26T07:39:32;24.90;;;10.23;;
19095;SDS011;9680;52.520;13.332;2024-02-26T07:41:58;27.20;;;9.90;;
19095;SDS011;9680;52.520;13.332;2024-02-26T07:44:25;22.60;;;10.07;;
19095;SDS011;9680;52.520;13.332;2024-02-26T07:46:53;26.17;;;10.07;;
19095;SDS011;9680;52.520;13.332;2024-02-26T07:49:24;29.53;;;10.80;;
19095;SDS011;9680;52.520;13.332;2024-02-26T07:51:53;24.20;;;10.53;;
19095;SDS011;9680;52.520;13.332;2024-02-26T07:54:22;23.80;;;10.57;;
19095;SDS011;9680;52.520;13.332;2024-02-26T07:56:49;25.57;;;9.90;;
19095;SDS011;9680;52.520;13.332;2024-02-26T07:59:16;23.83;;;10.47;;
19095;SDS011;9680;52.520;13.332;2024-02-26T08:01:48;25.00;;;10.43;;
19095;SDS011;9680;52.520;13.332;2024-02-26T08:04:18;23.53;;;10.53;;
19095;SDS011;9680;52.520;13.332;2024-02-26T08:06:46;24.50;;;10.40;;
19095;SDS011;9680;52.520;13.332;2024-02-26T08:09:12;22.93;;;9.87;;
19095;SDS011;9680;52.520;13.332;2024-02-26T08:11:39;23.70;;;10.70;;
19095;SDS011;9680;52.520;13.332;2024-02-26T08:14:06;24.43;;;10.90;;
19095;SDS011;9680;52.520;13.332;2024-02-26T08:16:34;27.13;;;10.73;;
19095;SDS011;9680;52.520;13.332;2024-02-26T08:19:01;21.60;;;10.33;;
19095;SDS011;9680;52.520;13.332;2024-02-26T08:21:30;25.30;;;10.37;;
19095;SDS011;9680;52.520;13.332;2024-02-26T08:23:56;25.87;;;11.40;;
19095;SDS011;9680;52.520;13.332;2024-02-26T08:26:23;26.00;;;10.93;;
19095;SDS011;9680;52.520;13.332;2024-02-26T08:28:54;24.77;;;10.77;;
19095;SDS011;9680;52.520;13.332;2024-02-26T08:31:23;23.67;;;10.70;;
19095;SDS011;9680;52.520;13.332;2024-02-26T08:33:53;24.03;;;10.10;;
19095;SDS011;9680;52.520;13.332;2024-02-26T08:36:27;24.87;;;11.03;;
19095;SDS011;9680;52.520;13.332;2024-02-26T08:38:55;25.70;;;10.67;;
19095;SDS011;9680;52.520;13.332;2024-02-26T08:41:22;22.30;;;10.60;;
19095;SDS011;9680;52.520;13.332;2024-02-26T08:43:49;25.13;;;10.77;;
19095;SDS011;9680;52.520;13.332;2024-02-26T08:46:16;24.27;;;10.63;;
19095;SDS011;9680;52.520;13.332;2024-02-26T08:48:43;21.17;;;9.63;;
19095;SDS011;9680;52.520;13.332;2024-02-26T08:51:10;25.57;;;11.10;;
19095;SDS011;9680;52.520;13.332;2024-02-26T08:53:40;23.50;;;10.80;;
19095;SDS011;9680;52.520;13.332;2024-02-26T08:56:13;23.43;;;11.03;;
19095;SDS011;9680;52.520;13.332;2024-02-26T08:58:42;26.50;;;11.57;;
19095;SDS011;9680;52.520;13.332;2024-02-26T09:01:11;27.53;;;11.60;;
19095;SDS011;9680;52.520;13.332;2024-02-26T09:03:38;24.87;;;10.80;;
19095;SDS011;9680;52.520;13.332;2024-02-26T09:06:05;27.07;;;10.97;;
19095;SDS011;9680;52.520;13.332;2024-02-26T09:08:32;24.97;;;10.67;;
19095;SDS011;9680;52.520;13.332;2024-02-26T09:11:01;23.60;;;11.30;;
19095;SDS011;9680;52.520;13.332;2024-02-26T09:13:30;26.90;;;11.27;;
19095;SDS011;9680;52.520;13.332;2024-02-26T09:15:57;24.97;;;10.70;;
19095;SDS011;9680;52.520;13.332;2024-02-26T09:18:24;25.40;;;10.97;;
19095;SDS011;9680;52.520;13.332;2024-02-26T09:20:51;22.20;;;10.20;;
19095;SDS011;9680;52.520;13.332;2024-02-26T09:23:18;26.40;;;11.23;;
19095;SDS011;9680;52.520;13.332;2024-02-26T09:25:45;26.50;;;11.00;;
19095;SDS011;9680;52.520;13.332;2024-02-26T09:28:12;24.97;;;10.13;;
19095;SDS011;9680;52.520;13.332;2024-02-26T09:30:43;22.13;;;10.67;;
19095;SDS011;9680;52.520;13.332;2024-02-26T09:33:10;24.93;;;11.17;;
19095;SDS011;9680;52.520;13.332;2024-02-26T09:35:38;22.50;;;10.33;;
19095;SDS011;9680;52.520;13.332;2024-02-26T09:38:04;26.77;;;10.90;;
19095;SDS011;9680;52.520;13.332;2024-02-26T09:40:31;21.17;;;10.20;;
19095;SDS011;9680;52.520;13.332;2024-02-26T09:42:59;23.30;;;11.07;;
19095;SDS011;9680;52.520;13.332;2024-02-26T09:45:27;25.10;;;10.33;;
19095;SDS011;9680;52.520;13.332;2024-02-26T09:47:56;26.87;;;10.47;;
19095;SDS011;9680;52.520;13.332;2024-02-26T09:50:24;22.77;;;10.20;;
19095;SDS011;9680;52.520;13.332;2024-02-26T09:52:51;22.13;;;10.43;;
19095;SDS011;9680;52.520;13.332;2024-02-26T09:55:19;24.33;;;10.97;;
19095;SDS011;9680;52.520;13.332;2024-02-26T09:57:46;28.57;;;10.67;;
19095;SDS011;9680;52.520;13.332;2024-02-26T10:00:17;23.63;;;9.80;;
19095;SDS011;9680;52.520;13.332;2024-02-26T10:02:47;23.20;;;10.40;;
19095;SDS011;9680;52.520;13.332;2024-02-26T10:05:16;29.67;;;10.33;;
19095;SDS011;9680;52.520;13.332;2024-02-26T10:07:44;21.67;;;9.73;;
19095;SDS011;9680;52.520;13.332;2024-02-26T10:10:12;23.87;;;9.93;;
19095;SDS011;9680;52.520;13.332;2024-02-26T10:12:40;20.50;;;9.80;;
19095;SDS011;9680;52.520;13.332;2024-02-26T10:15:07;20.93;;;9.60;;
19095;SDS011;9680;52.520;13.332;2024-02-26T10:17:35;21.17;;;10.23;;
19095;SDS011;9680;52.520;13.332;2024-02-26T10:20:13;23.73;;;10.87;;
19095;SDS011;9680;52.520;13.332;2024-02-26T10:22:45;24.80;;;10.23;;
19095;SDS011;9680;52.520;13.332;2024-02-26T10:25:12;21.67;;;9.90;;
19095;SDS011;9680;52.520;13.332;2024-02-26T10:27:40;19.13;;;9.70;;
19095;SDS011;9680;52.520;13.332;2024-02-26T10:30:15;22.27;;;9.13;;
19095;SDS011;9680;52.520;13.332;2024-02-26T10:32:44;21.70;;;8.63;;
19095;SDS011;9680;52.520;13.332;2024-02-26T10:35:12;18.90;;;8.98;;
19095;SDS011;9680;52.520;13.332;2024-02-26T10:37:40;18.40;;;8.83;;
19095;SDS011;9680;52.520;13.332;2024-02-26T10:40:10;21.43;;;8.97;;
19095;SDS011;9680;52.520;13.332;2024-02-26T10:42:37;19.83;;;9.10;;
19095;SDS011;9680;52.520;13.332;2024-02-26T10:45:05;27.27;;;8.98;;
19095;SDS011;9680;52.520;13.332;2024-02-26T10:47:32;21.50;;;9.27;;
19095;SDS011;9680;52.520;13.332;2024-02-26T10:50:00;19.20;;;8.82;;
19095;SDS011;9680;52.520;13.332;2024-02-26T10:52:28;18.23;;;8.45;;
19095;SDS011;9680;52.520;13.332;2024-02-26T10:55:00;22.43;;;9.10;;
19095;SDS011;9680;52.520;13.332;2024-02-26T10:57:31;18.97;;;8.60;;
19095;SDS011;9680;52.520;13.332;2024-02-26T11:00:02;15.52;;;7.53;;
19095;SDS011;9680;52.520;13.332;2024-02-26T11:02:32;14.93;;;8.05;;
19095;SDS011;9680;52.520;13.332;2024-02-26T11:05:01;18.58;;;8.40;;
19095;SDS011;9680;52.520;13.332;2024-02-26T11:07:32;16.70;;;8.15;;
19095;SDS011;9680;52.520;13.332;2024-02-26T11:12:51;15.68;;;7.95;;
19095;SDS011;9680;52.520;13.332;2024-02-26T11:15:20;17.50;;;8.03;;
19095;SDS011;9680;52.520;13.332;2024-02-26T11:17:48;18.45;;;7.20;;
19095;SDS011;9680;52.520;13.332;2024-02-26T11:20:18;16.30;;;7.10;;
19095;SDS011;9680;52.520;13.332;2024-02-26T11:22:46;16.38;;;7.15;;
19095;SDS011;9680;52.520;13.332;2024-02-26T11:25:13;11.52;;;6.78;;
19095;SDS011;9680;52.520;13.332;2024-02-26T11:27:42;16.10;;;7.15;;
19095;SDS011;9680;52.520;13.332;2024-02-26T11:30:15;16.63;;;7.82;;
19095;SDS011;9680;52.520;13.332;2024-02-26T11:32:44;18.67;;;8.02;;
19095;SDS011;9680;52.520;13.332;2024-02-26T11:35:12;14.70;;;7.28;;
19095;SDS011;9680;52.520;13.332;2024-02-26T11:37:46;17.15;;;7.10;;
19095;SDS011;9680;52.520;13.332;2024-02-26T11:40:21;13.75;;;6.88;;
19095;SDS011;9680;52.520;13.332;2024-02-26T11:42:50;15.57;;;7.53;;
19095;SDS011;9680;52.520;13.332;2024-02-26T11:48:25;17.98;;;8.05;;
19095;SDS011;9680;52.520;13.332;2024-02-26T11:50:55;17.60;;;7.65;;
19095;SDS011;9680;52.520;13.332;2024-02-26T11:53:24;16.88;;;8.27;;
19095;SDS011;9680;52.520;13.332;2024-02-26T11:58:49;17.02;;;8.15;;
19095;SDS011;9680;52.520;13.332;2024-02-26T12:01:40;17.73;;;8.48;;
19095;SDS011;9680;52.520;13.332;2024-02-26T12:04:12;17.85;;;8.88;;
19095;SDS011;9680;52.520;13.332;2024-02-26T12:06:45;15.93;;;8.10;;
19095;SDS011;9680;52.520;13.332;2024-02-26T12:12:03;19.75;;;8.32;;
19095;SDS011;9680;52.520;13.332;2024-02-26T12:14:32;20.52;;;8.13;;
19095;SDS011;9680;52.520;13.332;2024-02-26T12:17:02;17.60;;;7.97;;
19095;SDS011;9680;52.520;13.332;2024-02-26T12:19:32;17.35;;;7.65;;
19095;SDS011;9680;52.520;13.332;2024-02-26T12:22:01;18.65;;;8.93;;
19095;SDS011;9680;52.520;13.332;2024-02-26T12:24:28;16.20;;;8.10;;
19095;SDS011;9680;52.520;13.332;2024-02-26T12:26:55;16.73;;;7.97;;
19095;SDS011;9680;52.520;13.332;2024-02-26T12:29:23;17.75;;;8.00;;
19095;SDS011;9680;52.520;13.332;2024-02-26T12:31:50;18.33;;;8.43;;
19095;SDS011;9680;52.520;13.332;2024-02-26T12:34:18;16.45;;;8.15;;
19095;SDS011;9680;52.520;13.332;2024-02-26T12:36:45;17.83;;;8.07;;
19095;SDS011;9680;52.520;13.332;2024-02-26T12:39:13;16.05;;;7.75;;
19095;SDS011;9680;52.520;13.332;2024-02-26T12:41:40;17.73;;;7.40;;
19095;SDS011;9680;52.520;13.332;2024-02-26T12:44:14;16.00;;;7.38;;
19095;SDS011;9680;52.520;13.332;2024-02-26T12:46:41;17.88;;;8.00;;
19095;SDS011;9680;52.520;13.332;2024-02-26T12:49:14;15.75;;;6.82;;
19095;SDS011;9680;52.520;13.332;2024-02-26T12:51:43;12.43;;;6.43;;
19095;SDS011;9680;52.520;13.332;2024-02-26T12:54:15;14.38;;;6.25;;
19095;SDS011;9680;52.520;13.332;2024-02-26T12:56:42;13.27;;;6.72;;
19095;SDS011;9680;52.520;13.332;2024-02-26T12:59:13;16.05;;;7.07;;
19095;SDS011;9680;52.520;13.332;2024-02-26T13:01:40;11.93;;;6.20;;
19095;SDS011;9680;52.520;13.332;2024-02-26T13:04:07;12.02;;;6.10;;
19095;SDS011;9680;52.520;13.332;2024-02-26T13:06:34;12.95;;;6.65;;
19095;SDS011;9680;52.520;13.332;2024-02-26T13:09:02;11.02;;;5.55;;
19095;SDS011;9680;52.520;13.332;2024-02-26T13:11:29;11.38;;;6.05;;
19095;SDS011;9680;52.520;13.332;2024-02-26T13:13:57;12.65;;;5.40;;
19095;SDS011;9680;52.520;13.332;2024-02-26T13:16:24;10.38;;;5.45;;
19095;SDS011;9680;52.520;13.332;2024-02-26T13:18:53;9.93;;;5.10;;
19095;SDS011;9680;52.520;13.332;2024-02-26T13:21:21;11.35;;;4.68;;
19095;SDS011;9680;52.520;13.332;2024-02-26T13:23:51;11.23;;;5.00;;
19095;SDS011;9680;52.520;13.332;2024-02-26T13:26:21;9.52;;;4.57;;
19095;SDS011;9680;52.520;13.332;2024-02-26T13:28:59;11.32;;;5.05;;
19095;SDS011;9680;52.520;13.332;2024-02-26T13:31:26;10.52;;;4.70;;
19095;SDS011;9680;52.520;13.332;2024-02-26T13:33:53;10.05;;;4.20;;
19095;SDS011;9680;52.520;13.332;2024-02-26T13:36:22;8.45;;;4.40;;
19095;SDS011;9680;52.520;13.332;2024-02-26T13:38:52;8.00;;;4.20;;
19095;SDS011;9680;52.520;13.332;2024-02-26T13:41:21;10.23;;;4.00;;
19095;SDS011;9680;52.520;13.332;2024-02-26T13:43:48;9.27;;;4.20;;
19095;SDS011;9680;52.520;13.332;2024-02-26T13:46:15;8.25;;;3.70;;
19095;SDS011;9680;52.520;13.332;2024-02-26T13:48:42;9.63;;;3.38;;
19095;SDS011;9680;52.520;13.332;2024-02-26T13:51:08;6.93;;;3.58;;
19095;SDS011;9680;52.520;13.332;2024-02-26T13:53:36;7.55;;;3.65;;
19095;SDS011;9680;52.520;13.332;2024-02-26T13:56:03;9.32;;;3.40;;
19095;SDS011;9680;52.520;13.332;2024-02-26T13:58:32;8.05;;;3.83;;
19095;SDS011;9680;52.520;13.332;2024-02-26T14:00:59;7.03;;;3.70;;
19095;SDS011;9680;52.520;13.332;2024-02-26T14:03:28;7.57;;;3.30;;
19095;SDS011;9680;52.520;13.332;2024-02-26T14:05:55;7.97;;;3.72;;
19095;SDS011;9680;52.520;13.332;2024-02-26T14:08:23;9.00;;;3.50;;
19095;SDS011;9680;52.520;13.332;2024-02-26T14:10:50;9.45;;;3.78;;
19095;SDS011;9680;52.520;13.332;2024-02-26T14:13:17;7.43;;;3.17;;
19095;SDS011;9680;52.520;13.332;2024-02-26T14:15:45;5.90;;;3.17;;
19095;SDS011;9680;52.520;13.332;2024-02-26T14:18:19;16.17;;;3.67;;
19095;SDS011;9680;52.520;13.332;2024-02-26T14:20:46;9.43;;;3.45;;
19095;SDS011;9680;52.520;13.332;2024-02-26T14:23:13;8.63;;;3.75;;
19095;SDS011;9680;52.520;13.332;2024-02-26T14:25:39;5.90;;;3.20;;
19095;SDS011;9680;52.520;13.332;2024-02-26T14:28:06;6.78;;;3.20;;
19095;SDS011;9680;52.520;13.332;2024-02-26T14:30:34;8.20;;;3.65;;
19095;SDS011;9680;52.520;13.332;2024-02-26T14:33:02;7.40;;;3.60;;
19095;SDS011;9680;52.520;13.332;2024-02-26T14:35:29;11.52;;;3.88;;
19095;SDS011;9680;52.520;13.332;2024-02-26T14:37:56;11.07;;;4.47;;
19095;SDS011;9680;52.520;13.332;2024-02-26T14:40:26;9.63;;;4.22;;
19095;SDS011;9680;52.520;13.332;2024-02-26T14:42:53;8.90;;;4.00;;
19095;SDS011;9680;52.520;13.332;2024-02-26T14:45:20;11.07;;;4.15;;
19095;SDS011;9680;52.520;13.332;2024-02-26T14:47:47;12.07;;;4.72;;
19095;SDS011;9680;52.520;13.332;2024-02-26T14:50:16;9.25;;;4.15;;